Time;durP1;ratioP1;P1;durP2;ratioP2;P2;SDS_P1;SDS_P2;PMS_P1;PMS_P2;Temp;Humidity;BMP_temperature;BMP_pressure;BME280_temperature;BME280_humidity;BME280_pressure;Samples;Min_cycle;Max_cycle;Signal;HPM_P1;HPM_P2
2022/06/27 00:01:16;;;;;;;10.30;6.20;;;;;;;;;;4942097;28;20062;-70
2022/06/27 00:03:43;;;;;;;8.30;5.93;;;;;;;;;;4943536;28;20043;-70
2022/06/27 00:06:11;;;;;;;7.68;5.80;;;;;;;;;;4940401;28;20054;-70
2022/06/27 00:08:39;;;;;;;9.15;6.28;;;;;;;;;;4946638;28;20056;-70
2022/06/27 00:11:07;;;;;;;8.55;6.47;;;;;;;;;;4943905;28;20121;-70
2022/06/27 00:13:34;;;;;;;7.95;6.32;;;;;;;;;;4945056;28;20058;-70
2022/06/27 00:16:01;;;;;;;7.75;6.18;;;;;;;;;;4944769;28;20058;-70
2022/06/27 00:18:28;;;;;;;9.57;5.82;;;;;;;;;;4943336;28;20381;-70
2022/06/27 00:20:56;;;;;;;11.73;7.35;;;;;;;;;;4942200;28;20070;-70
2022/06/27 00:23:23;;;;;;;7.78;6.40;;;;;;;;;;4941899;28;20047;-70
2022/06/27 00:25:51;;;;;;;11.13;6.05;;;;;;;;;;4938729;28;20517;-70
2022/06/27 00:28:19;;;;;;;8.38;6.35;;;;;;;;;;4942008;28;20117;-70
2022/06/27 00:30:46;;;;;;;12.23;6.60;;;;;;;;;;4938530;28;20058;-70
2022/06/27 00:33:13;;;;;;;11.43;6.85;;;;;;;;;;4941596;28;20066;-70
2022/06/27 00:35:40;;;;;;;8.20;7.03;;;;;;;;;;4940170;28;20765;-70
2022/06/27 00:38:07;;;;;;;7.60;6.40;;;;;;;;;;4941317;28;20051;-70
2022/06/27 00:40:35;;;;;;;8.45;7.55;;;;;;;;;;4942926;28;20066;-70
2022/06/27 00:43:03;;;;;;;9.05;7.72;;;;;;;;;;4945602;28;21131;-70
2022/06/27 00:45:31;;;;;;;11.98;7.72;;;;;;;;;;4940203;28;20062;-70
2022/06/27 00:47:58;;;;;;;10.85;7.55;;;;;;;;;;4941847;28;20074;-70
2022/06/27 00:50:25;;;;;;;10.05;6.80;;;;;;;;;;4941770;28;20387;-70
2022/06/27 00:52:53;;;;;;;10.13;7.68;;;;;;;;;;4940782;28;20063;-70
2022/06/27 00:55:20;;;;;;;12.05;7.78;;;;;;;;;;4943914;28;20050;-70
2022/06/27 00:57:47;;;;;;;9.43;7.57;;;;;;;;;;4942599;28;20122;-70
2022/06/27 01:00:16;;;;;;;9.23;7.32;;;;;;;;;;4942221;28;20050;-70
2022/06/27 01:02:43;;;;;;;9.80;7.88;;;;;;;;;;4945084;28;20110;-70
2022/06/27 01:05:12;;;;;;;12.80;7.50;;;;;;;;;;4940034;28;20055;-70
2022/06/27 01:07:40;;;;;;;10.52;8.13;;;;;;;;;;4948107;28;20142;-70
2022/06/27 01:10:08;;;;;;;13.43;8.02;;;;;;;;;;4939854;28;20055;-70
2022/06/27 01:12:35;;;;;;;9.73;7.35;;;;;;;;;;4939363;28;20066;-70
2022/06/27 01:15:02;;;;;;;10.23;7.43;;;;;;;;;;4944065;28;20051;-70
2022/06/27 01:17:31;;;;;;;9.02;7.90;;;;;;;;;;4939470;28;20130;-70
2022/06/27 01:19:58;;;;;;;11.32;8.48;;;;;;;;;;4944810;28;20050;-70
2022/06/27 01:22:27;;;;;;;11.32;7.97;;;;;;;;;;4943921;28;20089;-70
2022/06/27 01:24:54;;;;;;;10.57;7.90;;;;;;;;;;4940564;28;20058;-70
2022/06/27 01:27:21;;;;;;;13.70;7.68;;;;;;;;;;4936763;28;20054;-70
2022/06/27 01:29:48;;;;;;;16.63;8.45;;;;;;;;;;4940813;28;20051;-70
2022/06/27 01:32:15;;;;;;;15.85;7.97;;;;;;;;;;4945826;28;20065;-70
2022/06/27 01:34:43;;;;;;;11.70;7.00;;;;;;;;;;4945029;28;20050;-70
2022/06/27 01:37:10;;;;;;;11.45;8.13;;;;;;;;;;4943423;28;20047;-70
2022/06/27 01:39:38;;;;;;;9.90;7.60;;;;;;;;;;4939629;28;20059;-70
2022/06/27 01:42:06;;;;;;;11.77;7.15;;;;;;;;;;4942123;28;20321;-70
2022/06/27 01:44:34;;;;;;;8.30;6.75;;;;;;;;;;4936679;28;20067;-70
2022/06/27 01:47:06;;;;;;;11.15;7.40;;;;;;;;;;4938918;28;20493;-70
2022/06/27 01:49:34;;;;;;;9.60;7.40;;;;;;;;;;4943778;28;20531;-70
2022/06/27 01:52:02;;;;;;;10.07;7.80;;;;;;;;;;4939558;28;20113;-70
2022/06/27 01:54:29;;;;;;;10.32;8.13;;;;;;;;;;4943671;28;20108;-70
2022/06/27 01:56:58;;;;;;;11.25;8.25;;;;;;;;;;4938031;28;20077;-70
2022/06/27 01:59:27;;;;;;;8.32;7.03;;;;;;;;;;4942589;28;20062;-70
2022/06/27 02:01:54;;;;;;;9.80;7.38;;;;;;;;;;4947290;28;20066;-70
2022/06/27 02:04:22;;;;;;;10.57;7.80;;;;;;;;;;4936290;28;20490;-70
2022/06/27 02:06:50;;;;;;;10.38;8.40;;;;;;;;;;4943942;28;20121;-70
2022/06/27 02:09:17;;;;;;;9.32;8.35;;;;;;;;;;4946143;28;20050;-70
2022/06/27 02:11:45;;;;;;;13.80;8.18;;;;;;;;;;4935863;28;20541;-70
2022/06/27 02:14:14;;;;;;;12.52;7.68;;;;;;;;;;4922853;29;20821;-70
2022/06/27 02:16:42;;;;;;;10.57;7.68;;;;;;;;;;4922567;29;20065;-70
2022/06/27 02:19:11;;;;;;;11.23;7.93;;;;;;;;;;4919704;29;20099;-70
2022/06/27 02:21:38;;;;;;;8.70;7.47;;;;;;;;;;4925366;29;20126;-70
2022/06/27 02:24:05;;;;;;;10.35;7.78;;;;;;;;;;4922342;29;20047;-70
2022/06/27 02:26:33;;;;;;;10.57;8.80;;;;;;;;;;4918098;28;20059;-70
2022/06/27 02:29:00;;;;;;;9.05;7.50;;;;;;;;;;4925999;29;20494;-70
2022/06/27 02:31:29;;;;;;;9.13;7.03;;;;;;;;;;4922815;28;20058;-70
2022/06/27 02:33:57;;;;;;;10.63;8.00;;;;;;;;;;4917347;28;20201;-70
2022/06/27 02:36:27;;;;;;;12.60;8.50;;;;;;;;;;4921621;28;20058;-70
2022/06/27 02:38:56;;;;;;;12.23;8.50;;;;;;;;;;4922693;29;20147;-70
2022/06/27 02:41:24;;;;;;;10.93;8.07;;;;;;;;;;4926530;29;20066;-70
2022/06/27 02:43:53;;;;;;;10.45;7.80;;;;;;;;;;4926031;28;20066;-70
2022/06/27 02:46:21;;;;;;;12.40;8.90;;;;;;;;;;4923409;29;20114;-70
2022/06/27 02:48:50;;;;;;;12.98;8.30;;;;;;;;;;4925411;28;20055;-70
2022/06/27 02:51:20;;;;;;;10.55;8.07;;;;;;;;;;4922622;29;20106;-70
2022/06/27 02:53:50;;;;;;;12.88;7.93;;;;;;;;;;4923198;29;20053;-70
2022/06/27 02:56:21;;;;;;;9.57;7.40;;;;;;;;;;4922457;28;20095;-70
2022/06/27 02:58:53;;;;;;;14.35;8.45;;;;;;;;;;4927512;29;20069;-70
2022/06/27 03:01:20;;;;;;;11.40;7.80;;;;;;;;;;4918195;29;20066;-70
2022/06/27 03:03:50;;;;;;;13.15;8.10;;;;;;;;;;4925174;29;20130;-70
2022/06/27 03:06:17;;;;;;;12.55;7.90;;;;;;;;;;4922418;29;20052;-70
2022/06/27 03:08:45;;;;;;;12.60;8.20;;;;;;;;;;4920820;29;20047;-70
2022/06/27 03:11:13;;;;;;;13.77;7.50;;;;;;;;;;4936405;28;20051;-70
2022/06/27 03:13:40;;;;;;;12.35;7.90;;;;;;;;;;4944883;28;20072;-70
2022/06/27 03:16:08;;;;;;;12.43;8.38;;;;;;;;;;4942525;28;20066;-70
2022/06/27 03:18:36;;;;;;;12.93;8.23;;;;;;;;;;4942400;28;20469;-70
2022/06/27 03:21:04;;;;;;;8.50;7.63;;;;;;;;;;4951488;28;20058;-70
2022/06/27 03:23:31;;;;;;;10.98;8.15;;;;;;;;;;4947025;28;20055;-70
2022/06/27 03:25:58;;;;;;;11.73;8.40;;;;;;;;;;4949928;28;20055;-70
2022/06/27 03:28:26;;;;;;;12.23;8.00;;;;;;;;;;4939846;28;20047;-70
2022/06/27 03:30:53;;;;;;;12.60;7.43;;;;;;;;;;4943815;28;20050;-70
2022/06/27 03:33:20;;;;;;;11.02;7.95;;;;;;;;;;4943839;28;20047;-70
2022/06/27 03:35:47;;;;;;;10.95;7.90;;;;;;;;;;4947368;28;20062;-70
2022/06/27 03:38:16;;;;;;;11.57;8.40;;;;;;;;;;4940262;28;20150;-70
2022/06/27 03:40:43;;;;;;;14.50;8.68;;;;;;;;;;4944229;28;20411;-70
2022/06/27 03:43:10;;;;;;;10.35;8.40;;;;;;;;;;4942980;28;20667;-70
2022/06/27 03:45:38;;;;;;;10.98;8.25;;;;;;;;;;4937856;28;20058;-70
2022/06/27 03:48:05;;;;;;;12.95;7.70;;;;;;;;;;4943917;28;20105;-70
2022/06/27 03:50:32;;;;;;;11.75;8.50;;;;;;;;;;4947236;28;20051;-70
2022/06/27 03:52:59;;;;;;;14.07;8.55;;;;;;;;;;4946121;28;20047;-70
2022/06/27 03:55:28;;;;;;;11.02;7.97;;;;;;;;;;4946499;28;20484;-70
2022/06/27 03:57:56;;;;;;;11.82;9.15;;;;;;;;;;4944614;28;20054;-70
2022/06/27 04:00:24;;;;;;;10.57;8.13;;;;;;;;;;4943737;28;20500;-70
2022/06/27 04:02:51;;;;;;;12.65;9.05;;;;;;;;;;4948351;28;20057;-70
2022/06/27 04:05:19;;;;;;;10.68;7.80;;;;;;;;;;4946642;28;20470;-70
2022/06/27 04:07:46;;;;;;;12.30;9.27;;;;;;;;;;4949246;28;20050;-70
2022/06/27 04:10:14;;;;;;;11.30;8.65;;;;;;;;;;4948358;28;20055;-70
2022/06/27 04:12:42;;;;;;;11.02;9.18;;;;;;;;;;4950909;28;20073;-70
2022/06/27 04:15:11;;;;;;;10.85;9.50;;;;;;;;;;4949479;28;20062;-70
2022/06/27 04:17:39;;;;;;;10.77;9.68;;;;;;;;;;4946375;28;20122;-70
2022/06/27 04:20:07;;;;;;;14.20;8.95;;;;;;;;;;4950565;28;20054;-70
2022/06/27 04:22:34;;;;;;;11.43;8.20;;;;;;;;;;4944942;28;20062;-70
2022/06/27 04:25:02;;;;;;;10.02;8.43;;;;;;;;;;4944431;28;20489;-70
2022/06/27 04:27:29;;;;;;;12.07;8.25;;;;;;;;;;4944908;28;20062;-70
2022/06/27 04:29:58;;;;;;;13.63;8.77;;;;;;;;;;4942714;28;20050;-70
2022/06/27 04:32:26;;;;;;;10.93;9.00;;;;;;;;;;4943606;28;20046;-70
2022/06/27 04:34:53;;;;;;;12.02;8.82;;;;;;;;;;4942621;28;20133;-70
2022/06/27 04:37:21;;;;;;;14.98;10.05;;;;;;;;;;4940719;28;20054;-70
2022/06/27 04:39:48;;;;;;;12.07;9.82;;;;;;;;;;4944634;28;20058;-70
2022/06/27 04:42:18;;;;;;;9.68;8.60;;;;;;;;;;4941888;28;20043;-70
2022/06/27 04:44:45;;;;;;;15.25;8.82;;;;;;;;;;4943350;28;20109;-70
2022/06/27 04:47:15;;;;;;;11.38;9.63;;;;;;;;;;4942773;28;20406;-70
2022/06/27 04:49:43;;;;;;;13.55;8.68;;;;;;;;;;4944192;28;20299;-70
2022/06/27 04:52:12;;;;;;;14.35;9.77;;;;;;;;;;4941821;28;20067;-70
2022/06/27 04:54:41;;;;;;;14.32;8.93;;;;;;;;;;4942798;28;20410;-70
2022/06/27 04:57:08;;;;;;;12.23;8.77;;;;;;;;;;4961190;28;20062;-70
2022/06/27 04:59:35;;;;;;;11.45;8.77;;;;;;;;;;4943355;28;20652;-70
2022/06/27 05:02:03;;;;;;;12.52;8.80;;;;;;;;;;4940448;28;20054;-70
2022/06/27 05:04:31;;;;;;;13.85;9.20;;;;;;;;;;4944850;28;20074;-70
2022/06/27 05:06:59;;;;;;;15.15;9.77;;;;;;;;;;4943039;28;20450;-70
2022/06/27 05:09:26;;;;;;;12.00;9.90;;;;;;;;;;4943574;28;20130;-70
2022/06/27 05:11:54;;;;;;;13.20;8.20;;;;;;;;;;4942997;28;20058;-70
2022/06/27 05:14:21;;;;;;;12.55;9.45;;;;;;;;;;4935517;28;21017;-70
2022/06/27 05:16:49;;;;;;;16.27;8.52;;;;;;;;;;4941765;28;20067;-70
2022/06/27 05:19:16;;;;;;;12.70;8.00;;;;;;;;;;4941425;28;20505;-70
2022/06/27 05:21:45;;;;;;;13.77;9.00;;;;;;;;;;4944537;28;20157;-70
2022/06/27 05:24:12;;;;;;;12.70;7.95;;;;;;;;;;4945164;28;20069;-70
2022/06/27 05:26:39;;;;;;;11.35;7.53;;;;;;;;;;4946831;28;20556;-70
2022/06/27 05:29:07;;;;;;;11.10;7.50;;;;;;;;;;4945352;28;20051;-70
2022/06/27 05:31:34;;;;;;;8.73;7.82;;;;;;;;;;4943495;28;20287;-70
2022/06/27 05:34:01;;;;;;;14.45;7.45;;;;;;;;;;4945565;28;20051;-70
2022/06/27 05:36:29;;;;;;;10.05;8.00;;;;;;;;;;4943453;28;20054;-70
2022/06/27 05:38:58;;;;;;;10.73;7.72;;;;;;;;;;4944042;28;20134;-71
2022/06/27 05:41:25;;;;;;;12.27;8.55;;;;;;;;;;4943836;28;20183;-70
2022/06/27 05:43:53;;;;;;;11.18;8.07;;;;;;;;;;4959407;28;20143;-70
2022/06/27 05:46:20;;;;;;;12.88;8.40;;;;;;;;;;4940360;28;20059;-70
2022/06/27 05:48:47;;;;;;;11.77;8.07;;;;;;;;;;4942674;28;20433;-70
2022/06/27 05:51:15;;;;;;;16.48;9.18;;;;;;;;;;4947466;28;20050;-70
2022/06/27 05:53:43;;;;;;;16.02;9.05;;;;;;;;;;4946757;28;20057;-70
2022/06/27 05:56:11;;;;;;;10.55;9.02;;;;;;;;;;4946020;28;20102;-70
2022/06/27 05:58:39;;;;;;;15.43;9.80;;;;;;;;;;4949147;28;20054;-70
2022/06/27 06:01:06;;;;;;;14.65;9.30;;;;;;;;;;4945477;28;20057;-70
2022/06/27 06:03:34;;;;;;;17.33;9.52;;;;;;;;;;4948259;28;20142;-70
2022/06/27 06:06:01;;;;;;;15.57;9.77;;;;;;;;;;4948226;28;20069;-70
2022/06/27 06:08:29;;;;;;;14.50;10.07;;;;;;;;;;4947064;28;20057;-70
2022/06/27 06:10:57;;;;;;;11.55;8.50;;;;;;;;;;4946316;28;20470;-70
2022/06/27 06:13:25;;;;;;;17.02;10.05;;;;;;;;;;4947108;28;20051;-70
2022/06/27 06:15:53;;;;;;;12.35;9.10;;;;;;;;;;4948721;28;20197;-70
2022/06/27 06:18:21;;;;;;;14.27;9.85;;;;;;;;;;4945415;28;20069;-70
2022/06/27 06:20:48;;;;;;;14.98;9.82;;;;;;;;;;4947086;28;20848;-70
2022/06/27 06:23:16;;;;;;;13.48;9.95;;;;;;;;;;4944801;28;20710;-70
2022/06/27 06:25:43;;;;;;;19.13;11.35;;;;;;;;;;4946880;28;20125;-70
2022/06/27 06:28:11;;;;;;;15.73;10.63;;;;;;;;;;4946449;28;20072;-70
2022/06/27 06:30:39;;;;;;;14.95;10.77;;;;;;;;;;4948550;28;20113;-70
2022/06/27 06:33:07;;;;;;;15.65;10.55;;;;;;;;;;4946443;28;20063;-70
2022/06/27 06:35:35;;;;;;;17.00;11.52;;;;;;;;;;4964747;28;20062;-70
2022/06/27 06:38:03;;;;;;;14.82;11.77;;;;;;;;;;4945407;28;20075;-70
2022/06/27 06:40:30;;;;;;;15.65;12.45;;;;;;;;;;4945668;28;20051;-70
2022/06/27 06:43:00;;;;;;;16.05;11.95;;;;;;;;;;4947914;28;20054;-70
2022/06/27 06:45:29;;;;;;;18.50;12.55;;;;;;;;;;4947973;28;20061;-70
2022/06/27 06:47:58;;;;;;;16.35;11.85;;;;;;;;;;4951589;28;20050;-70
2022/06/27 06:50:25;;;;;;;17.17;13.15;;;;;;;;;;4950618;28;20561;-70
2022/06/27 06:52:53;;;;;;;18.67;12.85;;;;;;;;;;4969176;28;20049;-70
2022/06/27 06:55:21;;;;;;;20.15;12.50;;;;;;;;;;4952750;28;20466;-70
2022/06/27 06:57:49;;;;;;;14.90;11.20;;;;;;;;;;4951381;28;20082;-70
2022/06/27 07:00:17;;;;;;;15.07;11.77;;;;;;;;;;4952987;28;20552;-70
2022/06/27 07:02:44;;;;;;;16.23;12.65;;;;;;;;;;4952130;28;20086;-70
2022/06/27 07:05:13;;;;;;;21.45;12.63;;;;;;;;;;4951635;28;20042;-70
2022/06/27 07:07:42;;;;;;;20.63;13.35;;;;;;;;;;4949078;28;20144;-70
2022/06/27 07:10:11;;;;;;;16.33;12.13;;;;;;;;;;4946153;28;20106;-70
2022/06/27 07:12:38;;;;;;;15.40;12.30;;;;;;;;;;4939945;28;20062;-70
2022/06/27 07:15:09;;;;;;;16.88;12.32;;;;;;;;;;4946620;28;20066;-70
2022/06/27 07:17:41;;;;;;;19.05;13.38;;;;;;;;;;4946832;28;20055;-70
2022/06/27 07:20:08;;;;;;;16.95;12.65;;;;;;;;;;4962733;28;20043;-70
2022/06/27 07:22:38;;;;;;;15.27;12.25;;;;;;;;;;4943272;28;20054;-70
2022/06/27 07:25:06;;;;;;;17.27;12.45;;;;;;;;;;4942944;28;20054;-70
2022/06/27 07:27:34;;;;;;;14.65;12.60;;;;;;;;;;4943591;28;20080;-70
2022/06/27 07:30:03;;;;;;;13.63;11.05;;;;;;;;;;4943043;28;20122;-70
2022/06/27 07:32:31;;;;;;;15.20;11.30;;;;;;;;;;4940968;28;20146;-70
2022/06/27 07:35:00;;;;;;;15.60;10.70;;;;;;;;;;4947309;28;20058;-70
2022/06/27 07:37:27;;;;;;;16.05;11.75;;;;;;;;;;4948977;28;20138;-70
2022/06/27 07:39:56;;;;;;;13.57;12.18;;;;;;;;;;4948142;28;20054;-70
2022/06/27 07:42:23;;;;;;;13.90;12.35;;;;;;;;;;4942121;28;20489;-70
2022/06/27 07:44:51;;;;;;;13.85;12.25;;;;;;;;;;4952047;28;20553;-70
2022/06/27 07:47:18;;;;;;;18.33;12.63;;;;;;;;;;4951271;28;20109;-70
2022/06/27 07:49:46;;;;;;;14.73;12.18;;;;;;;;;;4952429;28;20069;-70
2022/06/27 07:52:13;;;;;;;14.35;11.68;;;;;;;;;;4947941;28;20110;-70
2022/06/27 07:54:40;;;;;;;13.75;11.07;;;;;;;;;;4949391;28;20051;-70
2022/06/27 07:57:10;;;;;;;14.27;11.05;;;;;;;;;;4950475;28;20383;-70
2022/06/27 07:59:38;;;;;;;13.90;10.43;;;;;;;;;;4948595;28;20628;-70
2022/06/27 08:02:06;;;;;;;15.10;10.77;;;;;;;;;;4948605;28;20053;-70
2022/06/27 08:04:34;;;;;;;13.50;10.82;;;;;;;;;;4950995;28;20066;-70
2022/06/27 08:07:02;;;;;;;16.00;10.80;;;;;;;;;;4951965;28;20069;-70
2022/06/27 08:09:29;;;;;;;14.25;10.23;;;;;;;;;;4946682;28;21039;-70
2022/06/27 08:11:57;;;;;;;13.25;9.70;;;;;;;;;;4944408;28;20063;-70
2022/06/27 08:14:25;;;;;;;12.88;9.88;;;;;;;;;;4945460;28;20521;-70
2022/06/27 08:16:53;;;;;;;13.25;9.85;;;;;;;;;;4946526;28;20066;-70
2022/06/27 08:19:21;;;;;;;13.65;9.18;;;;;;;;;;4945685;28;20066;-70
2022/06/27 08:21:48;;;;;;;15.35;11.35;;;;;;;;;;4950889;28;20055;-70
2022/06/27 08:24:17;;;;;;;13.38;9.55;;;;;;;;;;4950635;28;20073;-70
2022/06/27 08:26:46;;;;;;;12.25;9.23;;;;;;;;;;4967293;28;21030;-70
2022/06/27 08:29:15;;;;;;;14.18;9.82;;;;;;;;;;4948950;28;20141;-70
2022/06/27 08:31:44;;;;;;;11.80;8.80;;;;;;;;;;4951103;28;20046;-70
2022/06/27 08:34:12;;;;;;;12.82;8.88;;;;;;;;;;4951742;28;20063;-70
2022/06/27 08:36:40;;;;;;;12.45;8.70;;;;;;;;;;4948326;28;20050;-70
2022/06/27 08:39:11;;;;;;;13.40;8.55;;;;;;;;;;4951594;28;20133;-70
2022/06/27 08:41:39;;;;;;;14.30;8.88;;;;;;;;;;4949175;28;20133;-70
2022/06/27 08:44:06;;;;;;;10.05;8.18;;;;;;;;;;4950581;28;20153;-70
2022/06/27 08:46:34;;;;;;;12.68;8.20;;;;;;;;;;4949487;28;20050;-70
2022/06/27 08:49:03;;;;;;;11.57;7.97;;;;;;;;;;4950942;28;20046;-70
2022/06/27 08:51:31;;;;;;;11.73;8.27;;;;;;;;;;4949886;28;20051;-70
2022/06/27 08:53:58;;;;;;;9.88;7.90;;;;;;;;;;4946996;28;20976;-70
2022/06/27 08:56:27;;;;;;;11.27;8.35;;;;;;;;;;4946742;28;20109;-70
2022/06/27 08:58:55;;;;;;;13.00;7.88;;;;;;;;;;4948958;28;20058;-70
2022/06/27 09:01:25;;;;;;;12.77;8.55;;;;;;;;;;4947582;28;20069;-70
2022/06/27 09:03:56;;;;;;;12.98;7.97;;;;;;;;;;4950028;28;20090;-70
2022/06/27 09:06:24;;;;;;;10.45;8.40;;;;;;;;;;4947797;28;20414;-70
2022/06/27 09:09:03;;;;;;;11.88;8.05;;;;;;;;;;4943550;28;20058;-70
2022/06/27 09:11:31;;;;;;;13.30;7.57;;;;;;;;;;4944226;28;20051;-70
2022/06/27 09:13:58;;;;;;;11.70;8.25;;;;;;;;;;4937002;28;20063;-70
2022/06/27 09:16:26;;;;;;;13.55;6.97;;;;;;;;;;4945835;28;20078;-70
2022/06/27 09:18:53;;;;;;;11.02;7.68;;;;;;;;;;4941033;28;20086;-70
2022/06/27 09:21:21;;;;;;;11.35;7.32;;;;;;;;;;4942444;28;20043;-70
2022/06/27 09:23:50;;;;;;;11.82;7.28;;;;;;;;;;4944048;28;20150;-70
2022/06/27 09:26:19;;;;;;;11.40;7.43;;;;;;;;;;4945146;28;20145;-70
2022/06/27 09:28:48;;;;;;;12.05;7.28;;;;;;;;;;4958410;28;20120;-70
2022/06/27 09:31:30;;;;;;;13.13;8.80;;;;;;;;;;4937534;28;20684;-70
2022/06/27 09:34:01;;;;;;;14.50;7.50;;;;;;;;;;4945587;28;20055;-70
2022/06/27 09:36:29;;;;;;;13.02;7.63;;;;;;;;;;4938284;28;20129;-70
2022/06/27 09:38:59;;;;;;;11.93;7.78;;;;;;;;;;4943585;28;20655;-70
2022/06/27 09:41:29;;;;;;;9.13;7.03;;;;;;;;;;4939128;28;20050;-70
2022/06/27 09:43:59;;;;;;;11.88;7.55;;;;;;;;;;4945726;28;20055;-70
2022/06/27 09:46:29;;;;;;;12.70;7.18;;;;;;;;;;4943820;28;20105;-70
2022/06/27 09:48:58;;;;;;;10.60;7.15;;;;;;;;;;4939481;28;20204;-70
2022/06/27 09:51:27;;;;;;;9.50;6.75;;;;;;;;;;4944647;28;20071;-70
2022/06/27 09:53:58;;;;;;;8.70;6.90;;;;;;;;;;4945957;28;20722;-70
2022/06/27 09:56:29;;;;;;;11.63;6.90;;;;;;;;;;4945032;29;20474;-70
2022/06/27 09:58:56;;;;;;;8.80;5.82;;;;;;;;;;4946961;28;20061;-70
2022/06/27 10:01:23;;;;;;;8.60;6.78;;;;;;;;;;4948080;28;20324;-70
2022/06/27 10:03:52;;;;;;;10.57;6.55;;;;;;;;;;4944463;28;20055;-70
2022/06/27 10:06:19;;;;;;;10.10;5.88;;;;;;;;;;4947308;28;20059;-70
2022/06/27 10:08:48;;;;;;;11.18;6.40;;;;;;;;;;4947576;28;20581;-70
2022/06/27 10:11:15;;;;;;;10.85;6.57;;;;;;;;;;4946159;28;20133;-70
2022/06/27 10:13:44;;;;;;;11.32;6.40;;;;;;;;;;4944648;28;20062;-70
2022/06/27 10:16:13;;;;;;;11.32;5.97;;;;;;;;;;4947817;28;20051;-70
2022/06/27 10:18:53;;;;;;;12.63;5.75;;;;;;;;;;4948094;28;20058;-70
2022/06/27 10:21:27;;;;;;;9.50;6.05;;;;;;;;;;4950488;28;20046;-70
2022/06/27 10:24:12;;;;;;;9.05;5.53;;;;;;;;;;4948709;28;20055;-70
2022/06/27 10:26:40;;;;;;;11.13;5.15;;;;;;;;;;4947702;28;20118;-70
2022/06/27 10:29:26;;;;;;;6.45;4.40;;;;;;;;;;4950817;28;20089;-70
2022/06/27 10:31:54;;;;;;;7.60;4.60;;;;;;;;;;4950685;28;20050;-70
2022/06/27 10:34:46;;;;;;;6.13;4.30;;;;;;;;;;4953254;28;20117;-70
2022/06/27 10:37:31;;;;;;;9.48;4.90;;;;;;;;;;4947545;28;20133;-70
2022/06/27 10:40:13;;;;;;;9.15;5.10;;;;;;;;;;4935742;28;20058;-70
2022/06/27 10:42:47;;;;;;;9.65;5.07;;;;;;;;;;4950084;28;20059;-70
2022/06/27 10:45:24;;;;;;;9.10;5.07;;;;;;;;;;4953208;28;20050;-70
2022/06/27 10:47:53;;;;;;;10.73;4.90;;;;;;;;;;4952970;28;20046;-70
2022/06/27 10:50:21;;;;;;;8.40;4.65;;;;;;;;;;4950301;28;20054;-70
2022/06/27 10:52:49;;;;;;;8.90;4.57;;;;;;;;;;4951270;28;20402;-70
2022/06/27 10:55:23;;;;;;;7.82;4.93;;;;;;;;;;4946744;28;20054;-70
2022/06/27 10:57:52;;;;;;;9.85;5.82;;;;;;;;;;4950368;28;20109;-70
2022/06/27 11:00:49;;;;;;;8.65;4.63;;;;;;;;;;4953110;28;20058;-70
2022/06/27 11:03:26;;;;;;;12.77;4.93;;;;;;;;;;4950560;28;20122;-70
2022/06/27 11:05:54;;;;;;;7.57;4.57;;;;;;;;;;4952131;28;20047;-70
2022/06/27 11:08:22;;;;;;;11.02;5.43;;;;;;;;;;4953345;28;20609;-70
2022/06/27 11:10:49;;;;;;;11.32;4.72;;;;;;;;;;4945962;28;20497;-70
2022/06/27 11:13:31;;;;;;;7.93;4.95;;;;;;;;;;4948963;28;20793;-70
2022/06/27 11:15:58;;;;;;;7.25;4.35;;;;;;;;;;4950810;28;20114;-70
2022/06/27 11:18:27;;;;;;;7.05;4.13;;;;;;;;;;4946368;28;20051;-70
2022/06/27 11:20:57;;;;;;;10.38;4.00;;;;;;;;;;4950121;28;20525;-70
2022/06/27 11:23:24;;;;;;;10.57;4.25;;;;;;;;;;4947366;28;20138;-70
2022/06/27 11:25:55;;;;;;;7.43;3.55;;;;;;;;;;4953286;28;20058;-70
2022/06/27 11:33:53;;;;;;;8.05;3.28;;;;;;;;;;4947137;28;20059;-70
2022/06/27 11:36:20;;;;;;;8.23;3.40;;;;;;;;;;4966239;28;20161;-70
2022/06/27 11:38:48;;;;;;;9.85;3.45;;;;;;;;;;4948510;28;20055;-70
2022/06/27 11:41:16;;;;;;;10.65;3.38;;;;;;;;;;4950402;28;20054;-70
2022/06/27 11:43:56;;;;;;;7.63;3.30;;;;;;;;;;4947207;28;20046;-70
2022/06/27 11:46:28;;;;;;;7.10;3.03;;;;;;;;;;4950887;28;20139;-70
2022/06/27 11:48:57;;;;;;;8.50;3.30;;;;;;;;;;4953324;28;20070;-70
2022/06/27 11:51:28;;;;;;;7.00;3.38;;;;;;;;;;4963365;28;20058;-70
2022/06/27 11:53:56;;;;;;;6.80;3.47;;;;;;;;;;4952251;28;20047;-70
2022/06/27 11:56:27;;;;;;;7.28;3.72;;;;;;;;;;4945056;28;20046;-70
2022/06/27 11:58:56;;;;;;;7.03;3.40;;;;;;;;;;4950852;28;20113;-70
2022/06/27 12:01:24;;;;;;;7.45;3.20;;;;;;;;;;4950082;28;20055;-70
2022/06/27 12:04:10;;;;;;;9.15;3.67;;;;;;;;;;4950595;28;20054;-70
2022/06/27 12:06:42;;;;;;;6.78;3.70;;;;;;;;;;4947314;28;20121;-70
2022/06/27 12:09:10;;;;;;;8.85;4.40;;;;;;;;;;4948199;28;20051;-70
2022/06/27 12:11:37;;;;;;;7.78;4.50;;;;;;;;;;4948613;28;20054;-70
2022/06/27 12:14:05;;;;;;;8.50;3.55;;;;;;;;;;4946767;28;20050;-70
2022/06/27 12:16:45;;;;;;;9.30;3.33;;;;;;;;;;4950879;28;20809;-70
2022/06/27 12:19:12;;;;;;;11.43;3.63;;;;;;;;;;4946257;28;20066;-70
2022/06/27 12:21:40;;;;;;;7.00;3.42;;;;;;;;;;4948511;28;20063;-71
2022/06/27 12:24:09;;;;;;;6.60;3.45;;;;;;;;;;4944689;28;20054;-71
2022/06/27 12:26:36;;;;;;;11.38;4.10;;;;;;;;;;4947013;28;20054;-71
2022/06/27 12:29:04;;;;;;;7.80;3.60;;;;;;;;;;4947313;28;20050;-71
2022/06/27 12:31:32;;;;;;;5.53;3.75;;;;;;;;;;4948915;28;20097;-71
2022/06/27 12:33:59;;;;;;;7.45;3.70;;;;;;;;;;4948408;28;20058;-71
2022/06/27 12:36:28;;;;;;;9.48;4.00;;;;;;;;;;4946722;28;20209;-71
2022/06/27 12:38:55;;;;;;;8.48;3.95;;;;;;;;;;4946711;28;20059;-71
2022/06/27 12:41:24;;;;;;;8.95;3.95;;;;;;;;;;4948959;28;20063;-71
2022/06/27 12:43:51;;;;;;;7.93;4.32;;;;;;;;;;4947153;28;20047;-71
2022/06/27 12:46:19;;;;;;;10.60;4.18;;;;;;;;;;4945784;28;20046;-71
2022/06/27 12:48:47;;;;;;;9.25;4.30;;;;;;;;;;4947341;28;20122;-71
2022/06/27 12:51:14;;;;;;;7.28;3.85;;;;;;;;;;4949155;28;20054;-71
2022/06/27 12:53:41;;;;;;;8.45;4.72;;;;;;;;;;4948998;28;20093;-70
2022/06/27 12:56:09;;;;;;;7.32;4.25;;;;;;;;;;4946181;28;20050;-70
2022/06/27 12:58:38;;;;;;;6.95;4.50;;;;;;;;;;4943356;28;20047;-70
2022/06/27 13:01:05;;;;;;;9.68;4.47;;;;;;;;;;4945330;28;20051;-70
2022/06/27 13:03:32;;;;;;;8.30;5.68;;;;;;;;;;4948264;28;20513;-70
2022/06/27 13:06:08;;;;;;;9.23;6.35;;;;;;;;;;5107436;27;20424;-70
2022/06/27 13:08:35;;;;;;;8.20;6.60;;;;;;;;;;5087297;28;20698;-70
2022/06/27 13:11:03;;;;;;;10.70;6.65;;;;;;;;;;5085004;28;20063;-70
2022/06/27 13:13:30;;;;;;;9.35;6.55;;;;;;;;;;5079853;28;20541;-70
2022/06/27 13:15:57;;;;;;;11.90;6.35;;;;;;;;;;5081535;28;20052;-70
2022/06/27 13:18:25;;;;;;;10.27;6.53;;;;;;;;;;5073111;28;20139;-70
2022/06/27 13:20:52;;;;;;;13.23;6.05;;;;;;;;;;5084991;28;20052;-70
2022/06/27 13:23:20;;;;;;;13.45;6.47;;;;;;;;;;5079780;28;20110;-70
2022/06/27 13:25:48;;;;;;;9.32;7.03;;;;;;;;;;5084696;28;20066;-70
2022/06/27 13:28:15;;;;;;;9.88;7.70;;;;;;;;;;5099489;28;20051;-70
2022/06/27 13:30:42;;;;;;;11.38;7.35;;;;;;;;;;5084016;28;20040;-70
2022/06/27 13:33:10;;;;;;;11.13;7.43;;;;;;;;;;5082176;28;20601;-70
2022/06/27 13:35:37;;;;;;;13.43;8.35;;;;;;;;;;5082224;28;20491;-70
2022/06/27 13:38:04;;;;;;;15.48;8.18;;;;;;;;;;5079194;28;20387;-70
2022/06/27 13:40:33;;;;;;;10.10;7.68;;;;;;;;;;5084690;28;20048;-70
2022/06/27 13:43:01;;;;;;;13.93;8.55;;;;;;;;;;5081945;28;20127;-70
2022/06/27 13:45:29;;;;;;;15.13;8.25;;;;;;;;;;5092520;28;20063;-70
2022/06/27 13:47:56;;;;;;;11.40;8.20;;;;;;;;;;5079001;28;20546;-70
2022/06/27 13:50:24;;;;;;;11.07;6.82;;;;;;;;;;5080299;28;21085;-70
2022/06/27 13:52:51;;;;;;;14.10;8.00;;;;;;;;;;5080732;28;20074;-70
2022/06/27 13:55:18;;;;;;;11.70;8.15;;;;;;;;;;5080127;28;20052;-70
2022/06/27 13:57:47;;;;;;;14.02;8.77;;;;;;;;;;5080674;28;20056;-70
2022/06/27 14:00:15;;;;;;;10.73;8.27;;;;;;;;;;5081766;28;20487;-70
2022/06/27 14:02:42;;;;;;;11.80;8.52;;;;;;;;;;5082599;28;20097;-70
2022/06/27 14:05:09;;;;;;;11.50;7.47;;;;;;;;;;5079116;28;20061;-70
2022/06/27 14:07:45;;;;;;;10.85;7.43;;;;;;;;;;5085404;28;20379;-70
2022/06/27 14:10:14;;;;;;;10.13;6.80;;;;;;;;;;5083171;28;20059;-70
2022/06/27 14:12:41;;;;;;;9.32;7.47;;;;;;;;;;5078983;28;20726;-70
2022/06/27 14:15:10;;;;;;;9.95;6.88;;;;;;;;;;5072351;28;20078;-70
2022/06/27 14:17:37;;;;;;;11.57;7.45;;;;;;;;;;5065526;28;20499;-70
2022/06/27 14:20:06;;;;;;;14.52;9.80;;;;;;;;;;5066854;28;20067;-70
2022/06/27 14:22:33;;;;;;;15.35;8.95;;;;;;;;;;5065357;28;20052;-70
2022/06/27 14:25:00;;;;;;;28.40;11.98;;;;;;;;;;5066415;28;20041;-70
2022/06/27 14:27:28;;;;;;;31.05;11.77;;;;;;;;;;5068653;28;20044;-69
2022/06/27 14:29:55;;;;;;;46.75;12.07;;;;;;;;;;5065496;28;20048;-69
2022/06/27 14:32:24;;;;;;;51.58;16.50;;;;;;;;;;5066230;28;20067;-69
2022/06/27 14:34:51;;;;;;;44.03;16.50;;;;;;;;;;5068510;28;20052;-69
2022/06/27 14:37:19;;;;;;;37.95;9.65;;;;;;;;;;5067141;28;20056;-69
2022/06/27 14:39:46;;;;;;;12.68;5.22;;;;;;;;;;5067777;28;20049;-68
2022/06/27 14:42:13;;;;;;;11.38;6.43;;;;;;;;;;5075009;28;20063;-68
2022/06/27 14:44:40;;;;;;;26.23;10.25;;;;;;;;;;5071276;28;20801;-68